createdAt,value
2018-08-04T00:00:13.328Z,14.95
2018-08-04T00:02:41.629Z,14.95
2018-08-04T00:05:10.862Z,15.25
2018-08-04T00:07:39.728Z,15.15
2018-08-04T00:10:17.505Z,14.68
2018-08-04T00:12:47.366Z,15.13
2018-08-04T00:15:15.861Z,14.55
2018-08-04T00:17:44.453Z,14.93
2018-08-04T00:20:12.874Z,16.85
2018-08-04T00:22:41.211Z,15.13
2018-08-04T00:25:09.560Z,15.88
2018-08-04T00:27:37.914Z,16.42
2018-08-04T00:30:08.548Z,16.52
2018-08-04T00:32:36.952Z,15.60
2018-08-04T00:35:05.656Z,16.02
2018-08-04T00:37:33.966Z,16.07
2018-08-04T00:40:02.297Z,15.90
2018-08-04T00:42:30.606Z,15.80
2018-08-04T00:44:58.681Z,15.08
2018-08-04T00:47:27.033Z,16.30
2018-08-04T00:49:55.334Z,16.67
2018-08-04T00:52:23.633Z,15.43
2018-08-04T00:54:52.112Z,16.45
2018-08-04T00:57:20.544Z,15.93
2018-08-04T00:59:48.808Z,15.70
2018-08-04T01:02:17.202Z,15.40
2018-08-04T01:04:45.483Z,16.82
2018-08-04T01:07:13.782Z,16.07
2018-08-04T01:09:42.111Z,15.63
2018-08-04T01:12:10.423Z,16.00
2018-08-04T01:14:38.706Z,16.37
2018-08-04T01:17:07.083Z,16.10
2018-08-04T01:19:36.043Z,16.05
2018-08-04T01:22:04.434Z,16.85
2018-08-04T01:24:32.722Z,17.33
2018-08-04T01:27:01.010Z,16.77
2018-08-04T01:29:29.272Z,16.00
2018-08-04T01:31:57.359Z,15.87
2018-08-04T01:34:25.625Z,16.70
2018-08-04T01:36:53.923Z,17.23
2018-08-04T01:39:22.210Z,16.63
2018-08-04T01:41:50.582Z,17.50
2018-08-04T01:44:18.976Z,17.23
2018-08-04T01:46:47.277Z,16.93
2018-08-04T01:49:15.561Z,17.03
2018-08-04T01:51:43.896Z,18.00
2018-08-04T01:54:12.187Z,17.27
2018-08-04T01:56:40.488Z,17.33
2018-08-04T01:59:08.768Z,17.53
2018-08-04T02:01:37.316Z,17.80
2018-08-04T02:04:05.624Z,17.93
2018-08-04T02:06:33.916Z,17.47
2018-08-04T02:09:01.983Z,17.80
2018-08-04T02:11:30.287Z,17.93
2018-08-04T02:13:58.590Z,17.37
2018-08-04T02:16:26.894Z,17.90
2018-08-04T02:18:55.184Z,18.83
2018-08-04T02:21:23.456Z,17.27
2018-08-04T02:23:51.740Z,17.83
2018-08-04T02:26:20.039Z,17.87
2018-08-04T02:28:48.319Z,18.57
2018-08-04T02:31:16.624Z,17.93
2018-08-04T02:33:44.920Z,17.07
2018-08-04T02:36:13.210Z,17.33
2018-08-04T02:38:41.569Z,18.17
2018-08-04T02:41:09.858Z,17.67
2018-08-04T02:43:38.176Z,18.23
2018-08-04T02:46:06.467Z,18.43
2018-08-04T02:48:34.868Z,18.53
2018-08-04T02:51:03.157Z,17.80
2018-08-04T02:53:31.456Z,18.87
2018-08-04T02:55:59.733Z,19.90
2018-08-04T02:58:28.070Z,19.00
2018-08-04T03:00:56.329Z,18.23
2018-08-04T03:03:24.641Z,18.33
2018-08-04T03:05:52.942Z,19.30
2018-08-04T03:08:21.259Z,18.13
2018-08-04T03:10:49.555Z,18.10
2018-08-04T03:13:17.851Z,18.63
2018-08-04T03:15:46.170Z,18.57
2018-08-04T03:18:14.467Z,17.63
2018-08-04T03:20:42.760Z,17.93
2018-08-04T03:23:11.061Z,19.00
2018-08-04T03:25:39.386Z,18.43
2018-08-04T03:28:07.676Z,18.60
2018-08-04T03:30:35.960Z,17.60
2018-08-04T03:33:04.375Z,17.80
2018-08-04T03:35:32.646Z,18.60
2018-08-04T03:38:00.947Z,18.50
2018-08-04T03:40:29.245Z,18.20
2018-08-04T03:42:57.580Z,17.93
2018-08-04T03:45:25.936Z,19.03
2018-08-04T03:47:54.242Z,17.37
2018-08-04T03:50:22.513Z,18.80
2018-08-04T03:52:50.797Z,19.13
2018-08-04T03:55:18.844Z,19.30
2018-08-04T03:57:47.363Z,18.83
2018-08-04T04:00:15.677Z,19.37
2018-08-04T04:02:43.982Z,18.00
2018-08-04T04:05:12.245Z,18.32
2018-08-04T04:07:40.557Z,17.60
2018-08-04T04:10:08.940Z,18.63
2018-08-04T04:12:37.251Z,19.37
2018-08-04T04:15:06.475Z,19.20
2018-08-04T04:17:41.683Z,18.03
2018-08-04T04:20:09.980Z,18.52
2018-08-04T04:22:38.250Z,19.00
2018-08-04T04:25:06.578Z,18.27
2018-08-04T04:27:35.104Z,18.67
2018-08-04T04:30:03.466Z,18.40
2018-08-04T04:32:31.875Z,17.60
2018-08-04T04:35:00.298Z,18.65
2018-08-04T04:37:28.706Z,18.62
2018-08-04T04:39:57.008Z,20.48
2018-08-04T04:42:25.295Z,19.17
2018-08-04T04:44:53.679Z,19.30
2018-08-04T04:47:21.970Z,19.65
2018-08-04T04:49:50.271Z,20.27
2018-08-04T04:52:18.576Z,19.98
2018-08-04T04:54:46.958Z,19.70
2018-08-04T04:57:15.258Z,19.45
2018-08-04T04:59:43.573Z,20.12
2018-08-04T05:02:11.875Z,19.67
2018-08-04T05:04:40.190Z,18.90
2018-08-04T05:07:08.527Z,18.95
2018-08-04T05:09:36.911Z,20.55
2018-08-04T05:12:05.253Z,22.13
2018-08-04T05:14:33.547Z,21.97
2018-08-04T05:17:01.835Z,25.75
2018-08-04T05:19:30.251Z,23.22
2018-08-04T05:21:58.556Z,24.37
2018-08-04T05:24:26.895Z,28.07
2018-08-04T05:26:55.164Z,26.43
2018-08-04T05:29:23.443Z,22.82
2018-08-04T05:31:51.737Z,34.77
2018-08-04T05:34:20.025Z,29.02
2018-08-04T05:36:48.332Z,25.33
2018-08-04T05:39:16.628Z,26.33
2018-08-04T05:41:44.938Z,25.17
2018-08-04T05:44:13.320Z,27.00
2018-08-04T05:46:41.630Z,27.53
2018-08-04T05:49:09.954Z,25.33
2018-08-04T05:51:38.294Z,23.63
2018-08-04T05:54:06.622Z,24.57
2018-08-04T05:56:34.903Z,26.20
2018-08-04T05:59:03.250Z,24.43
2018-08-04T06:01:31.645Z,25.70
2018-08-04T06:03:59.937Z,36.33
2018-08-04T06:06:28.286Z,24.87
2018-08-04T06:08:56.783Z,25.10
2018-08-04T06:11:25.268Z,24.07
2018-08-04T06:13:53.555Z,23.30
2018-08-04T06:16:21.939Z,19.77
2018-08-04T06:18:50.485Z,22.37
2018-08-04T06:21:18.882Z,21.42
2018-08-04T06:23:47.372Z,19.98
2018-08-04T06:26:15.758Z,21.65
2018-08-04T06:28:44.084Z,22.75
2018-08-04T06:31:12.398Z,22.43
2018-08-04T06:33:40.965Z,24.75
2018-08-04T06:36:09.361Z,26.42
2018-08-04T06:38:37.795Z,28.00
2018-08-04T06:41:06.198Z,28.20
2018-08-04T06:43:34.524Z,27.87
2018-08-04T06:46:02.839Z,26.65
2018-08-04T06:48:31.229Z,26.80
2018-08-04T06:50:59.681Z,25.32
2018-08-04T06:53:28.011Z,25.32
2018-08-04T06:55:56.344Z,25.65
2018-08-04T06:58:24.798Z,23.20
2018-08-04T07:00:53.202Z,24.30
2018-08-04T07:03:21.584Z,22.98
2018-08-04T07:05:49.898Z,23.40
2018-08-04T07:08:18.203Z,22.20
2018-08-04T07:10:46.574Z,22.05
2018-08-04T07:13:14.892Z,22.45
2018-08-04T07:15:43.190Z,20.72
2018-08-04T07:18:11.530Z,20.57
2018-08-04T07:20:39.936Z,21.20
2018-08-04T07:23:08.215Z,22.30
2018-08-04T07:25:36.616Z,21.10
2018-08-04T07:28:05.055Z,22.25
2018-08-04T07:30:33.475Z,21.45
2018-08-04T07:33:01.776Z,22.22
2018-08-04T07:35:30.159Z,78.57
2018-08-04T07:37:58.218Z,23.62
2018-08-04T07:40:26.565Z,22.27
2018-08-04T07:42:54.897Z,24.67
2018-08-04T07:45:23.195Z,22.65
2018-08-04T07:47:51.502Z,21.75
2018-08-04T07:50:19.962Z,23.77
2018-08-04T07:52:48.466Z,22.95
2018-08-04T07:55:16.760Z,24.23
2018-08-04T07:57:45.077Z,24.10
2018-08-04T08:00:13.409Z,21.82
2018-08-04T08:02:41.968Z,22.30
2018-08-04T08:05:11.074Z,22.70
2018-08-04T08:07:39.409Z,23.67
2018-08-04T08:10:07.709Z,19.82
2018-08-04T08:12:36.047Z,20.82
2018-08-04T08:15:05.054Z,20.35
2018-08-04T08:17:33.339Z,18.02
2018-08-04T08:20:01.685Z,19.27
2018-08-04T08:22:37.079Z,19.62
2018-08-04T08:25:05.704Z,18.98
2018-08-04T08:27:34.079Z,16.35
2018-08-04T08:30:02.504Z,16.75
2018-08-04T08:32:30.918Z,15.03
2018-08-04T08:34:59.597Z,15.28
2018-08-04T08:37:27.901Z,13.80
2018-08-04T08:39:56.316Z,12.58
2018-08-04T08:42:24.683Z,13.40
2018-08-04T08:44:53.320Z,13.20
2018-08-04T08:47:21.705Z,11.03
2018-08-04T08:49:50.021Z,10.30
2018-08-04T08:52:18.332Z,13.15
2018-08-04T08:54:46.803Z,14.25
2018-08-04T08:57:15.115Z,14.23
2018-08-04T08:59:43.469Z,11.88
2018-08-04T09:02:11.793Z,12.45
2018-08-04T09:04:40.106Z,12.75
2018-08-04T09:07:08.437Z,12.10
2018-08-04T09:09:36.803Z,10.60
2018-08-04T09:12:05.173Z,12.43
2018-08-04T09:14:33.782Z,12.03
2018-08-04T09:17:02.220Z,12.07
2018-08-04T09:19:30.607Z,11.83
2018-08-04T09:22:00.669Z,10.30
2018-08-04T09:24:28.948Z,10.68
2018-08-04T09:26:57.267Z,9.35
2018-08-04T09:29:25.667Z,10.20
2018-08-04T09:31:53.986Z,9.88
2018-08-04T09:34:22.300Z,10.35
2018-08-04T09:36:50.911Z,9.55
2018-08-04T09:39:19.194Z,9.60
2018-08-04T09:41:47.520Z,9.58
2018-08-04T09:44:15.790Z,9.75
2018-08-04T09:46:44.102Z,9.05
2018-08-04T09:49:12.396Z,9.15
2018-08-04T09:51:40.796Z,8.13
2018-08-04T09:54:09.085Z,7.70
2018-08-04T09:56:37.369Z,8.23
2018-08-04T09:59:05.678Z,8.98
2018-08-04T10:01:36.682Z,8.68
2018-08-04T10:04:05.184Z,8.68
2018-08-04T10:06:33.831Z,9.70
2018-08-04T10:09:02.201Z,9.33
2018-08-04T10:11:30.567Z,8.93
2018-08-04T10:13:58.954Z,8.45
2018-08-04T10:16:27.239Z,8.28
2018-08-04T10:18:55.573Z,7.80
2018-08-04T10:21:23.864Z,7.90
2018-08-04T10:23:52.168Z,8.05
2018-08-04T10:26:20.489Z,8.65
2018-08-04T10:28:48.791Z,9.03
2018-08-04T10:31:17.073Z,8.53
2018-08-04T10:33:45.412Z,7.58
2018-08-04T10:36:13.738Z,8.55
2018-08-04T10:38:42.148Z,7.53
2018-08-04T10:41:10.426Z,8.08
2018-08-04T10:43:38.834Z,8.60
2018-08-04T10:46:07.213Z,8.00
2018-08-04T10:48:35.595Z,7.65
2018-08-04T10:51:04.010Z,7.47
2018-08-04T10:53:32.444Z,7.40
2018-08-04T10:56:00.744Z,7.97
2018-08-04T10:58:35.439Z,7.28
2018-08-04T11:01:09.924Z,7.00
2018-08-04T11:03:44.315Z,7.62
2018-08-04T11:06:19.759Z,7.03
2018-08-04T11:08:54.062Z,8.38
2018-08-04T11:11:22.553Z,8.00
2018-08-04T11:13:50.900Z,8.15
2018-08-04T11:16:19.356Z,26.40
2018-08-04T11:18:47.690Z,7.67
2018-08-04T11:21:15.981Z,7.62
2018-08-04T11:23:44.276Z,8.20
2018-08-04T11:26:12.631Z,8.38
2018-08-04T11:28:40.925Z,7.35
2018-08-04T11:31:09.273Z,8.00
2018-08-04T11:33:37.587Z,8.18
2018-08-04T11:36:06.029Z,6.83
2018-08-04T11:38:34.392Z,7.58
2018-08-04T11:41:02.674Z,8.30
2018-08-04T11:43:30.975Z,8.10
2018-08-04T11:45:59.257Z,7.95
2018-08-04T11:48:27.551Z,8.58
2018-08-04T11:50:55.821Z,7.12
2018-08-04T11:53:24.142Z,7.62
2018-08-04T11:55:52.458Z,9.13
2018-08-04T11:58:20.802Z,7.37
2018-08-04T12:00:49.107Z,7.53
2018-08-04T12:03:17.488Z,7.72
2018-08-04T12:05:50.249Z,7.75
2018-08-04T12:08:18.550Z,7.40
2018-08-04T12:10:46.831Z,7.50
2018-08-04T12:13:15.205Z,7.85
2018-08-04T12:15:43.493Z,7.35
2018-08-04T12:18:11.845Z,7.62
2018-08-04T12:20:40.121Z,12.55
2018-08-04T12:23:08.445Z,12.18
2018-08-04T12:25:36.770Z,8.70
2018-08-04T12:28:05.064Z,8.00
2018-08-04T12:30:33.376Z,8.25
2018-08-04T12:33:01.660Z,7.70
2018-08-04T12:35:29.946Z,7.78
2018-08-04T12:37:58.256Z,8.05
2018-08-04T12:40:26.314Z,7.65
2018-08-04T12:42:54.599Z,7.47
2018-08-04T12:45:22.923Z,7.25
2018-08-04T12:47:51.201Z,7.90
2018-08-04T12:50:19.621Z,7.70
2018-08-04T12:52:47.888Z,7.20
2018-08-04T12:55:16.221Z,7.33
2018-08-04T12:57:44.677Z,7.37
2018-08-04T13:00:13.032Z,7.15
2018-08-04T13:02:41.333Z,7.50
2018-08-04T13:05:09.713Z,8.83
2018-08-04T13:07:38.012Z,7.53
2018-08-04T13:10:06.443Z,8.70
2018-08-04T13:12:34.840Z,7.45
2018-08-04T13:15:03.240Z,7.30
2018-08-04T13:17:31.579Z,7.22
2018-08-04T13:19:59.879Z,8.85
2018-08-04T13:22:28.251Z,7.35
2018-08-04T13:24:56.657Z,7.92
2018-08-04T13:27:24.938Z,7.17
2018-08-04T13:29:52.981Z,8.15
2018-08-04T13:32:21.265Z,8.03
2018-08-04T13:34:49.671Z,11.75
2018-08-04T13:37:18.249Z,8.20
2018-08-04T13:39:46.621Z,7.65
2018-08-04T13:42:14.980Z,8.08
2018-08-04T13:44:43.393Z,7.30
2018-08-04T13:47:11.772Z,8.08
2018-08-04T13:49:40.156Z,7.03
2018-08-04T13:52:08.540Z,7.37
2018-08-04T13:54:36.938Z,7.85
2018-08-04T13:57:05.310Z,8.03
2018-08-04T13:59:33.632Z,8.58
2018-08-04T14:02:02.007Z,8.40
2018-08-04T14:04:30.462Z,10.13
2018-08-04T14:06:58.480Z,8.83
2018-08-04T14:09:26.785Z,8.58
2018-08-04T14:11:55.080Z,14.23
2018-08-04T14:14:23.479Z,8.85
2018-08-04T14:16:51.933Z,9.28
2018-08-04T14:19:20.342Z,11.85
2018-08-04T14:21:48.697Z,10.50
2018-08-04T14:24:17.081Z,8.53
2018-08-04T14:26:45.522Z,8.43
2018-08-04T14:29:13.893Z,8.75
2018-08-04T14:31:42.310Z,8.33
2018-08-04T14:34:10.614Z,8.28
2018-08-04T14:36:39.006Z,11.03
2018-08-04T14:39:11.019Z,8.30
2018-08-04T14:41:39.492Z,9.15
2018-08-04T14:44:08.074Z,9.60
2018-08-04T14:46:36.662Z,9.80
2018-08-04T14:49:06.223Z,9.63
2018-08-04T14:51:34.579Z,9.70
2018-08-04T14:54:02.910Z,8.40
2018-08-04T14:56:31.281Z,8.10
2018-08-04T14:58:59.721Z,8.18
2018-08-04T15:01:28.154Z,8.23
2018-08-04T15:03:56.502Z,7.83
2018-08-04T15:06:24.815Z,6.58
2018-08-04T15:08:53.193Z,6.87
2018-08-04T15:11:21.612Z,6.72
2018-08-04T15:13:49.961Z,7.17
2018-08-04T15:16:18.296Z,6.12
2018-08-04T15:18:46.669Z,6.85
2018-08-04T15:21:14.965Z,6.83
2018-08-04T15:23:43.374Z,7.03
2018-08-04T15:26:11.729Z,6.87
2018-08-04T15:28:40.018Z,6.72
2018-08-04T15:31:08.302Z,7.90
2018-08-04T15:33:36.638Z,7.75
2018-08-04T15:36:05.263Z,7.85
2018-08-04T15:38:33.697Z,7.67
2018-08-04T15:41:02.023Z,7.28
2018-08-04T15:43:30.394Z,8.18
2018-08-04T15:45:58.910Z,6.92
2018-08-04T15:48:27.557Z,7.22
2018-08-04T15:50:56.699Z,8.50
2018-08-04T15:53:25.043Z,7.75
2018-08-04T15:55:53.519Z,8.20
2018-08-04T15:58:21.846Z,17.15
2018-08-04T16:00:50.313Z,7.40
2018-08-04T16:03:18.659Z,7.87
2018-08-04T16:05:47.371Z,8.35
2018-08-04T16:08:16.105Z,7.92
2018-08-04T16:10:44.823Z,8.25
2018-08-04T16:13:13.096Z,7.53
2018-08-04T16:15:41.370Z,7.75
2018-08-04T16:18:10.007Z,7.85
2018-08-04T16:20:38.726Z,7.30
2018-08-04T16:23:07.633Z,7.10
2018-08-04T16:25:35.919Z,7.60
2018-08-04T16:28:04.196Z,7.22
2018-08-04T16:30:32.576Z,7.90
2018-08-04T16:33:00.868Z,7.53
2018-08-04T16:35:29.170Z,7.53
2018-08-04T16:37:57.626Z,7.90
2018-08-04T16:40:26.238Z,7.53
2018-08-04T16:42:54.656Z,7.65
2018-08-04T16:45:22.952Z,7.40
2018-08-04T16:47:51.470Z,7.95
2018-08-04T16:50:19.761Z,7.25
2018-08-04T16:52:48.143Z,8.03
2018-08-04T16:55:16.439Z,7.90
2018-08-04T16:57:44.991Z,7.42
2018-08-04T17:00:13.273Z,7.35
2018-08-04T17:02:41.572Z,7.53
2018-08-04T17:05:10.092Z,7.47
2018-08-04T17:07:38.387Z,7.55
2018-08-04T17:10:06.701Z,7.37
2018-08-04T17:12:34.999Z,7.47
2018-08-04T17:15:03.486Z,7.75
2018-08-04T17:17:31.789Z,7.58
2018-08-04T17:20:00.079Z,8.23
2018-08-04T17:22:28.385Z,7.37
2018-08-04T17:24:56.684Z,7.58
2018-08-04T17:27:25.003Z,7.70
2018-08-04T17:29:53.290Z,7.35
2018-08-04T17:32:21.597Z,7.15
2018-08-04T17:34:49.967Z,7.08
2018-08-04T17:37:18.363Z,7.33
2018-08-04T17:39:46.657Z,7.12
2018-08-04T17:42:15.033Z,7.58
2018-08-04T17:44:43.363Z,7.37
2018-08-04T17:47:11.746Z,7.00
2018-08-04T17:49:40.075Z,7.28
2018-08-04T17:52:08.451Z,7.35
2018-08-04T17:54:36.739Z,7.15
2018-08-04T17:57:05.146Z,7.62
2018-08-04T17:59:33.458Z,9.53
2018-08-04T18:02:01.799Z,8.08
2018-08-04T18:04:30.143Z,7.83
2018-08-04T18:06:58.496Z,6.85
2018-08-04T18:09:26.875Z,7.85
2018-08-04T18:11:55.355Z,7.03
2018-08-04T18:14:23.716Z,7.05
2018-08-04T18:16:52.061Z,6.92
2018-08-04T18:19:20.427Z,7.22
2018-08-04T18:21:48.754Z,7.25
2018-08-04T18:24:17.071Z,7.08
2018-08-04T18:26:45.390Z,7.05
2018-08-04T18:29:13.716Z,7.53
2018-08-04T18:31:42.164Z,6.78
2018-08-04T18:34:10.593Z,7.67
2018-08-04T18:36:38.892Z,7.62
2018-08-04T18:39:07.698Z,7.65
2018-08-04T18:41:35.975Z,9.38
2018-08-04T18:44:04.410Z,7.90
2018-08-04T18:46:32.683Z,8.50
2018-08-04T18:49:01.032Z,8.33
2018-08-04T18:51:29.329Z,9.13
2018-08-04T18:53:57.615Z,8.88
2018-08-04T18:56:25.911Z,8.43
2018-08-04T18:58:54.189Z,8.58
2018-08-04T19:01:22.457Z,8.68
2018-08-04T19:03:50.776Z,8.35
2018-08-04T19:06:19.076Z,10.80
2018-08-04T19:08:47.393Z,9.98
2018-08-04T19:11:15.718Z,7.70
2018-08-04T19:13:44.033Z,12.10
2018-08-04T19:16:12.388Z,17.17
2018-08-04T19:18:40.667Z,11.05
2018-08-04T19:21:08.935Z,8.70
2018-08-04T19:23:37.237Z,8.65
2018-08-04T19:26:05.524Z,8.43
2018-08-04T19:28:33.934Z,8.58
2018-08-04T19:31:02.216Z,8.85
2018-08-04T19:33:30.590Z,9.10
2018-08-04T19:35:58.899Z,9.15
2018-08-04T19:38:27.171Z,9.28
2018-08-04T19:40:55.487Z,9.30
2018-08-04T19:43:23.812Z,9.58
2018-08-04T19:45:57.498Z,9.73
2018-08-04T19:48:25.811Z,9.78
2018-08-04T19:50:54.237Z,10.70
2018-08-04T19:53:22.516Z,9.55
2018-08-04T19:55:50.813Z,10.70
2018-08-04T19:58:19.089Z,10.58
2018-08-04T20:00:47.891Z,10.32
2018-08-04T20:03:16.290Z,10.40
2018-08-04T20:05:44.624Z,10.45
2018-08-04T20:08:12.918Z,10.78
2018-08-04T20:10:41.229Z,10.68
2018-08-04T20:13:09.521Z,10.20
2018-08-04T20:15:37.808Z,11.05
2018-08-04T20:18:06.146Z,10.60
2018-08-04T20:20:34.429Z,10.53
2018-08-04T20:23:02.796Z,10.43
2018-08-04T20:25:31.123Z,10.90
2018-08-04T20:27:59.413Z,11.38
2018-08-04T20:30:27.748Z,11.08
2018-08-04T20:32:56.033Z,10.65
2018-08-04T20:35:24.383Z,10.48
2018-08-04T20:37:52.799Z,11.75
2018-08-04T20:40:21.105Z,11.25
2018-08-04T20:42:49.440Z,10.78
2018-08-04T20:45:17.741Z,12.18
2018-08-04T20:47:46.097Z,11.35
2018-08-04T20:50:14.415Z,10.90
2018-08-04T20:52:42.748Z,10.55
2018-08-04T20:55:11.084Z,10.98
2018-08-04T20:57:39.385Z,11.10
2018-08-04T21:00:07.712Z,10.63
2018-08-04T21:02:35.990Z,10.40
2018-08-04T21:05:04.043Z,11.57
2018-08-04T21:07:32.321Z,10.35
2018-08-04T21:10:00.654Z,10.60
2018-08-04T21:12:28.970Z,10.72
2018-08-04T21:14:57.261Z,10.70
2018-08-04T21:17:25.287Z,11.90
2018-08-04T21:19:53.669Z,11.00
2018-08-04T21:22:22.559Z,10.68
2018-08-04T21:24:51.015Z,10.00
2018-08-04T21:27:19.437Z,9.18
2018-08-04T21:29:47.724Z,9.73
2018-08-04T21:32:16.033Z,9.15
2018-08-04T21:34:44.341Z,9.43
2018-08-04T21:37:12.693Z,10.18
2018-08-04T21:39:40.990Z,9.85
2018-08-04T21:42:09.335Z,10.18
2018-08-04T21:44:37.661Z,8.70
2018-08-04T21:47:06.195Z,9.03
2018-08-04T21:49:34.575Z,9.33
2018-08-04T21:52:02.845Z,9.53
2018-08-04T21:54:31.163Z,9.13
2018-08-04T21:56:59.453Z,9.23
2018-08-04T21:59:27.752Z,9.40
2018-08-04T22:02:03.070Z,9.35
2018-08-04T22:04:31.473Z,9.85
2018-08-04T22:07:35.507Z,9.53
2018-08-04T22:10:04.200Z,9.85
2018-08-04T22:12:32.518Z,10.50
2018-08-04T22:15:00.906Z,9.83
2018-08-04T22:17:29.199Z,9.83
2018-08-04T22:19:57.467Z,9.08
2018-08-04T22:22:26.698Z,9.35
2018-08-04T22:24:55.097Z,9.65
2018-08-04T22:27:23.401Z,9.85
2018-08-04T22:29:51.827Z,10.70
2018-08-04T22:32:20.274Z,11.45
2018-08-04T22:34:48.603Z,9.65
2018-08-04T22:37:16.917Z,9.60
2018-08-04T22:39:45.254Z,9.63
2018-08-04T22:42:13.567Z,9.40
2018-08-04T22:44:53.286Z,10.78
2018-08-04T22:47:21.590Z,11.40
2018-08-04T22:49:49.900Z,11.85
2018-08-04T22:52:18.188Z,9.98
2018-08-04T22:54:46.513Z,10.58
2018-08-04T22:57:14.814Z,11.30
2018-08-04T22:59:43.138Z,10.68
2018-08-04T23:02:11.483Z,9.98
2018-08-04T23:04:39.803Z,9.95
2018-08-04T23:07:08.112Z,10.18
2018-08-04T23:09:36.384Z,10.40
2018-08-04T23:12:04.690Z,9.18
2018-08-04T23:14:32.946Z,8.98
2018-08-04T23:17:01.240Z,9.00
2018-08-04T23:19:29.516Z,10.03
2018-08-04T23:21:57.853Z,9.05
2018-08-04T23:24:26.193Z,10.18
2018-08-04T23:26:54.492Z,10.18
2018-08-04T23:29:22.826Z,9.80
2018-08-04T23:31:51.148Z,10.32
2018-08-04T23:34:19.402Z,10.35
2018-08-04T23:36:47.714Z,10.45
2018-08-04T23:39:15.994Z,9.55
2018-08-04T23:41:44.400Z,10.23
2018-08-04T23:44:12.772Z,10.50
2018-08-04T23:46:41.053Z,10.25
2018-08-04T23:49:09.369Z,10.00
2018-08-04T23:51:37.661Z,11.08
2018-08-04T23:54:05.970Z,10.55
2018-08-04T23:56:34.279Z,10.32
2018-08-04T23:59:02.585Z,10.15
